Vaiden, Mississippi
Current Conditions -  °F | °C
As of 2:53 PM on Thursday 18 Dec 2014 (Local Time) from KGWO Reporting Station
Overcast Overcast  
Wind Chill: 52°   Ceiling: 3600
Heat Index: 52°   Visibility: 10mi
Dew Point: 42°   Wind: 3mph
Humidity: 69%   Direction: 130°SE
Pressure: 30.16"   Gusts: NA
Location:  33.33°N, 89.74°W
Report Text: KGWO 182053Z AUTO 13003KT 10SM OVC036 11/06 A3016 RMK AO2 SLP211 T01110056 56018
Loading
Personal Weather Stations






























Interactive Weather Map New forecast layout! Learn more

10-Day Weather Forecast

Advertisements
Track Severe Weather on mobile